Date,TemperatureHighF,TemperatureAvgF,TemperatureLowF,DewpointHighF,DewpointAvgF,DewpointLowF,HumidityHigh,HumidityAvg,HumidityLow,PressureMaxIn,PressureMinIn,WindSpeedMaxMPH,WindSpeedAvgMPH,GustSpeedMaxMPH,PrecipitationSumIn
2013-2-1,38,27,21,32,14,4,97,59,35,30.28,30.03,19,9,32,0.00
2013-2-2,33,28,20,33,20,2,100,74,38,30.28,30.07,7,1,13,0.34
2013-2-3,42,35,31,34,31,29,100,85,61,30.08,29.96,16,8,27,0.33
2013-2-4,46,35,26,33,26,23,89,71,48,30.10,29.99,10,2,19,0.00
2013-2-5,54,45,40,45,37,25,100,76,52,30.03,29.94,8,2,11,0.00
2013-2-6,57,47,37,45,36,28,100,70,35,30.18,30.04,7,2,13,0.00
2013-2-7,52,48,44,46,40,28,100,76,47,30.16,29.94,6,3,15,0.03
2013-2-8,48,43,34,44,41,32,100,95,73,30.14,29.92,15,5,28,0.00
2013-2-9,58,42,27,34,28,24,100,67,28,30.26,30.08,9,3,15,0.00
2013-2-10,50,47,44,50,34,24,100,65,38,30.30,30.09,22,13,31,0.34
2013-2-11,53,50,44,53,48,37,100,94,68,30.14,30.04,15,6,25,0.17
2013-2-12,49,42,36,43,38,33,100,85,67,30.11,29.87,4,1,12,0.07
2013-2-13,45,41,33,45,40,32,100,98,91,29.91,29.72,15,7,32,0.00
2013-2-14,48,39,32,34,32,30,97,78,53,30.05,29.93,9,5,14,0.00
2013-2-15,52,42,36,43,35,32,100,79,47,30.09,29.98,12,3,18,0.05
2013-2-16,35,28,23,35,23,14,100,83,53,30.03,29.90,17,8,32,0.00
2013-2-17,34,26,19,14,11,8,68,53,41,30.20,29.99,16,10,27,0.00
2013-2-18,50,40,29,30,22,14,59,50,42,30.29,30.11,18,6,36,0.00
2013-2-19,47,40,34,42,30,15,100,70,37,30.11,29.96,20,11,37,0.15
2013-2-20,43,33,27,18,10,2,55,40,21,30.14,30.08,15,7,27,0.00
2013-2-21,60,42,27,40,21,9,95,47,17,30.15,29.99,13,4,22,0.38
2013-2-22,48,43,40,48,43,40,100,98,94,30.14,30.02,16,7,33,0.30
2013-2-23,54,48,44,54,48,44,100,100,99,30.03,29.86,8,1,16,0.40
2013-2-24,55,44,36,45,35,26,100,73,33,30.03,29.91,9,3,15,0.00
2013-2-25,52,44,37,42,33,26,100,66,51,30.03,29.87,15,7,27,0.00
2013-2-26,46,44,37,46,43,36,100,98,89,29.83,29.56,22,11,36,0.69
2013-2-27,48,39,34,40,34,32,100,86,57,29.86,29.74,9,6,24,0.01
2013-2-28,38,32,30,35,28,25,94,86,78,29.94,29.81,14,9,32,0.00